createdAt,value
2024-05-09T00:04:31.210Z,94.39
2024-05-09T00:09:34.367Z,95.16
2024-05-09T00:14:37.460Z,95.49
2024-05-09T00:19:40.781Z,95.73
2024-05-09T00:24:44.686Z,95.98
2024-05-09T00:29:48.021Z,96.21
2024-05-09T00:34:51.241Z,96.40
2024-05-09T00:39:54.442Z,96.57
2024-05-09T00:44:57.555Z,97.05
2024-05-09T00:50:01.685Z,97.41
2024-05-09T00:55:06.533Z,97.66
2024-05-09T01:00:18.551Z,98.24
2024-05-09T01:05:30.313Z,98.57
2024-05-09T01:10:35.337Z,98.83
2024-05-09T01:15:39.334Z,99.43
2024-05-09T01:20:44.666Z,99.67
2024-05-09T01:25:48.447Z,99.83
2024-05-09T01:30:51.503Z,100.00
2024-05-09T01:35:54.405Z,100.00
2024-05-09T01:40:58.066Z,100.00
2024-05-09T01:46:01.020Z,100.00
2024-05-09T01:51:04.567Z,100.00
2024-05-09T01:56:08.226Z,100.00
2024-05-09T02:01:11.363Z,100.00
2024-05-09T02:06:14.520Z,100.00
2024-05-09T02:11:17.773Z,100.00
2024-05-09T02:16:20.888Z,100.00
2024-05-09T02:21:24.411Z,100.00
2024-05-09T02:26:27.432Z,100.00
2024-05-09T02:31:30.713Z,100.00
2024-05-09T02:36:34.028Z,100.00
2024-05-09T02:41:36.763Z,100.00
2024-05-09T02:46:40.138Z,100.00
2024-05-09T02:51:43.040Z,100.00
2024-05-09T02:56:46.345Z,100.00
2024-05-09T03:01:49.649Z,100.00
2024-05-09T03:06:53.789Z,100.00
2024-05-09T03:11:57.051Z,100.00
2024-05-09T03:17:00.748Z,100.00
2024-05-09T03:22:04.245Z,100.00
2024-05-09T03:27:07.263Z,100.00
2024-05-09T03:32:10.743Z,100.00
2024-05-09T03:37:14.587Z,100.00
2024-05-09T03:42:17.782Z,100.00
2024-05-09T03:47:20.796Z,100.00
2024-05-09T03:52:23.889Z,100.00
2024-05-09T03:57:26.890Z,100.00
2024-05-09T04:02:30.884Z,100.00
2024-05-09T04:07:34.429Z,99.50
2024-05-09T04:12:38.395Z,93.95
2024-05-09T04:17:41.899Z,85.86
2024-05-09T04:22:45.067Z,82.92
2024-05-09T04:27:48.292Z,77.57
2024-05-09T04:32:52.255Z,72.93
2024-05-09T04:37:55.377Z,70.43
2024-05-09T04:42:58.631Z,67.21
2024-05-09T04:48:02.280Z,65.47
2024-05-09T04:53:09.248Z,61.72
2024-05-09T04:58:13.703Z,59.36
2024-05-09T05:03:17.517Z,56.95
2024-05-09T05:08:22.270Z,54.03
2024-05-09T05:13:25.865Z,52.01
2024-05-09T05:18:28.928Z,51.05
2024-05-09T05:23:32.095Z,49.60
2024-05-09T05:28:35.195Z,46.60
2024-05-09T05:33:38.495Z,46.53
2024-05-09T05:38:41.467Z,45.04
2024-05-09T05:43:44.870Z,41.54
2024-05-09T05:48:48.057Z,38.50
2024-05-09T05:53:51.209Z,38.18
2024-05-09T05:58:54.513Z,37.88
2024-05-09T06:03:57.865Z,36.93
2024-05-09T06:09:01.361Z,34.33
2024-05-09T06:14:05.481Z,33.66
2024-05-09T06:19:08.535Z,34.33
2024-05-09T06:24:11.725Z,33.29
2024-05-09T06:29:14.925Z,32.45
2024-05-09T06:34:21.219Z,31.07
2024-05-09T06:39:24.708Z,30.35
2024-05-09T06:44:27.973Z,29.92
2024-05-09T06:49:31.889Z,29.36
2024-05-09T06:54:34.762Z,27.52
2024-05-09T06:59:37.663Z,26.63
2024-05-09T07:04:40.692Z,27.79
2024-05-09T07:09:43.855Z,27.44
2024-05-09T07:14:46.816Z,26.59
2024-05-09T07:19:51.163Z,25.47
2024-05-09T07:24:54.445Z,24.95
2024-05-09T07:29:57.929Z,24.23
2024-05-09T07:35:00.951Z,24.02
2024-05-09T07:40:07.443Z,23.62
2024-05-09T07:45:29.642Z,23.30
2024-05-09T07:52:23.796Z,22.82
2024-05-09T07:55:58.105Z,22.01
2024-05-09T08:01:04.885Z,22.24
2024-05-09T08:06:08.105Z,21.01
2024-05-09T08:11:11.458Z,20.50
2024-05-09T08:16:15.126Z,20.33
2024-05-09T08:21:19.401Z,20.40
2024-05-09T08:26:22.595Z,20.64
2024-05-09T08:31:25.832Z,19.65
2024-05-09T08:36:29.167Z,19.73
2024-05-09T08:41:33.360Z,19.51
2024-05-09T08:46:37.670Z,19.16
2024-05-09T08:51:40.724Z,19.67
2024-05-09T08:56:46.940Z,20.12
2024-05-09T09:01:50.978Z,19.82
2024-05-09T09:06:58.208Z,20.54
2024-05-09T09:12:01.649Z,19.98
2024-05-09T09:17:17.431Z,20.48
2024-05-09T09:22:21.660Z,20.06
2024-05-09T09:27:24.964Z,20.12
2024-05-09T09:32:29.630Z,20.38
2024-05-09T09:37:32.971Z,20.54
2024-05-09T09:42:37.951Z,20.86
2024-05-09T09:47:42.693Z,21.80
2024-05-09T09:52:46.789Z,22.37
2024-05-09T09:57:49.837Z,22.97
2024-05-09T10:02:53.001Z,23.84
2024-05-09T10:07:57.704Z,24.11
2024-05-09T10:13:08.360Z,24.53
2024-05-09T10:18:11.843Z,25.73
2024-05-09T10:23:32.956Z,26.74
2024-05-09T10:28:39.248Z,28.32
2024-05-09T10:33:48.573Z,29.40
2024-05-09T10:38:53.700Z,31.12
2024-05-09T10:43:56.666Z,31.65
2024-05-09T10:49:01.683Z,31.31
2024-05-09T10:54:06.175Z,31.85
2024-05-09T10:59:09.155Z,32.38
2024-05-09T11:04:13.548Z,32.25
2024-05-09T11:09:16.998Z,32.40
2024-05-09T11:14:20.103Z,33.60
2024-05-09T11:19:23.452Z,34.16
2024-05-09T11:24:26.728Z,34.81
2024-05-09T11:29:40.274Z,35.25
2024-05-09T11:34:43.361Z,35.98
2024-05-09T11:39:46.837Z,35.91
2024-05-09T11:44:49.701Z,36.46
2024-05-09T11:49:56.163Z,36.38
2024-05-09T11:54:59.260Z,37.15
2024-05-09T12:00:05.604Z,37.48
2024-05-09T12:05:11.334Z,37.31
2024-05-09T12:10:19.625Z,37.67
2024-05-09T12:15:25.842Z,37.73
2024-05-09T12:20:36.113Z,37.92
2024-05-09T12:25:42.701Z,38.06
2024-05-09T12:30:45.880Z,38.14
2024-05-09T12:35:50.884Z,38.11
2024-05-09T12:40:54.510Z,38.57
2024-05-09T12:45:57.939Z,38.90
2024-05-09T12:51:00.989Z,38.98
2024-05-09T12:56:05.993Z,38.96
2024-05-09T13:01:09.623Z,38.92
2024-05-09T13:06:12.876Z,37.96
2024-05-09T13:11:16.116Z,38.54
2024-05-09T13:16:19.628Z,39.40
2024-05-09T13:21:23.217Z,39.59
2024-05-09T13:26:26.231Z,39.34
2024-05-09T13:31:29.250Z,38.72
2024-05-09T13:36:32.467Z,38.92
2024-05-09T13:41:35.652Z,39.22
2024-05-09T13:46:38.741Z,38.98
2024-05-09T13:51:41.768Z,38.89
2024-05-09T13:56:45.276Z,38.74
2024-05-09T14:01:48.580Z,39.12
2024-05-09T14:06:52.413Z,38.83
2024-05-09T14:11:55.377Z,38.57
2024-05-09T14:16:58.646Z,38.87
2024-05-09T14:22:02.494Z,39.41
2024-05-09T14:27:06.149Z,39.38
2024-05-09T14:32:09.056Z,39.76
2024-05-09T14:37:12.223Z,39.38
2024-05-09T14:42:15.508Z,39.83
2024-05-09T14:47:18.503Z,40.31
2024-05-09T14:52:22.252Z,40.65
2024-05-09T14:57:25.872Z,40.75
2024-05-09T15:02:29.103Z,41.19
2024-05-09T15:07:33.043Z,41.96
2024-05-09T15:12:35.989Z,42.23
2024-05-09T15:17:39.601Z,42.05
2024-05-09T15:22:42.694Z,41.94
2024-05-09T15:27:47.493Z,41.32
2024-05-09T15:32:51.204Z,41.24
2024-05-09T15:37:54.846Z,41.85
2024-05-09T15:42:58.411Z,41.89
2024-05-09T15:48:03.016Z,41.98
2024-05-09T15:53:06.970Z,41.92
2024-05-09T15:58:10.945Z,42.42
2024-05-09T16:03:15.058Z,42.85
2024-05-09T16:08:19.830Z,43.25
2024-05-09T16:13:22.942Z,43.70
2024-05-09T16:18:26.293Z,43.65
2024-05-09T16:23:29.389Z,43.81
2024-05-09T16:28:32.996Z,43.89
2024-05-09T16:33:36.345Z,44.35
2024-05-09T16:38:40.940Z,45.05
2024-05-09T16:43:43.879Z,45.47
2024-05-09T16:48:47.434Z,45.70
2024-05-09T16:53:50.311Z,46.25
2024-05-09T16:58:53.351Z,46.90
2024-05-09T17:03:56.897Z,47.09
2024-05-09T17:09:08.301Z,47.37
2024-05-09T17:14:15.056Z,47.99
2024-05-09T17:19:18.350Z,47.79
2024-05-09T17:24:21.389Z,47.94
2024-05-09T17:29:24.791Z,48.87
2024-05-09T17:34:28.115Z,49.38
2024-05-09T17:39:31.672Z,49.52
2024-05-09T17:44:34.614Z,49.77
2024-05-09T17:49:37.654Z,50.36
2024-05-09T17:54:40.764Z,51.57
2024-05-09T17:59:44.248Z,53.63
2024-05-09T18:04:47.255Z,54.90
2024-05-09T18:09:50.819Z,56.40
2024-05-09T18:14:53.861Z,58.29
2024-05-09T18:19:56.881Z,59.92
2024-05-09T18:25:00.018Z,61.59
2024-05-09T18:30:07.082Z,63.21
2024-05-09T18:35:11.621Z,64.68
2024-05-09T18:40:20.994Z,66.02
2024-05-09T18:45:31.118Z,67.54
2024-05-09T18:50:38.593Z,68.57
2024-05-09T18:55:44.190Z,69.60
2024-05-09T19:00:50.224Z,70.59
2024-05-09T19:05:55.042Z,71.13
2024-05-09T19:10:59.175Z,71.51
2024-05-09T19:16:03.562Z,72.16
2024-05-09T19:21:06.694Z,73.18
2024-05-09T19:26:10.003Z,73.93
2024-05-09T19:31:13.119Z,73.95
2024-05-09T19:36:20.591Z,74.68
2024-05-09T19:41:24.647Z,75.61
2024-05-09T19:46:28.303Z,76.92
2024-05-09T19:51:33.484Z,77.74
2024-05-09T19:56:36.919Z,78.60
2024-05-09T20:01:40.714Z,79.32
2024-05-09T20:06:46.489Z,80.17
2024-05-09T20:11:49.787Z,80.84
2024-05-09T20:16:53.003Z,81.13
2024-05-09T20:21:56.518Z,81.12
2024-05-09T20:26:59.557Z,81.23
2024-05-09T20:32:02.882Z,81.52
2024-05-09T20:37:06.081Z,82.06
2024-05-09T20:42:09.455Z,82.37
2024-05-09T20:47:12.907Z,82.50
2024-05-09T20:52:16.256Z,82.96
2024-05-09T20:57:19.538Z,83.57
2024-05-09T21:02:23.244Z,83.99
2024-05-09T21:07:26.275Z,84.58
2024-05-09T21:12:29.661Z,85.04
2024-05-09T21:17:33.870Z,85.73
2024-05-09T21:22:38.337Z,86.14
2024-05-09T21:27:42.029Z,86.57
2024-05-09T21:32:46.008Z,87.12
2024-05-09T21:37:49.140Z,87.32
2024-05-09T21:42:52.218Z,87.71
2024-05-09T21:47:55.534Z,88.01
2024-05-09T21:52:59.156Z,87.60
2024-05-09T21:58:02.419Z,87.26
2024-05-09T22:03:08.362Z,87.16
2024-05-09T22:08:12.274Z,87.34
2024-05-09T22:13:16.936Z,87.76
2024-05-09T22:18:20.335Z,88.85
2024-05-09T22:23:23.286Z,89.32
2024-05-09T22:28:26.424Z,89.72
2024-05-09T22:33:29.728Z,89.88
2024-05-09T22:38:33.009Z,90.04
2024-05-09T22:43:36.010Z,90.22
2024-05-09T22:48:39.337Z,90.41
2024-05-09T22:53:42.534Z,91.07
2024-05-09T22:58:45.458Z,91.14
2024-05-09T23:03:49.529Z,91.39
2024-05-09T23:08:53.083Z,91.50
2024-05-09T23:13:56.042Z,91.43
2024-05-09T23:18:59.162Z,91.86
2024-05-09T23:24:01.979Z,92.53
2024-05-09T23:29:05.000Z,93.35
2024-05-09T23:34:08.232Z,94.29
2024-05-09T23:39:11.402Z,95.09
2024-05-09T23:44:14.206Z,95.86
2024-05-09T23:49:17.357Z,96.65
2024-05-09T23:54:20.408Z,97.15
2024-05-09T23:59:23.414Z,97.39
